Terminal Aerodrome Forecast
Issued by NWS Birmingham, AL

Home | Current Version | Previous Version | Text Only | Print | Product List | Glossary On
Versions: 1 2 3 4 5 6 7 8 9 10 11 12 13 14 15 16 17 18
000
FTUS44 KBMX 301132
TAFBHM
TAF
KBHM 301132Z 3012/3112 36004KT P6SM SCT250
     FM301900 36012KT P6SM VCTS SCT050CB SCT200
     FM302300 02008KT P6SM SCT250=

USA.gov is the U.S. government's official web portal to all federal, state and local government web resources and services.